sensor_id;sensor_type;location;lat;lon;timestamp;temperature;humidity
50067;DHT22;35952;52.524;13.340;2023-02-26T00:02:17;0.70;99.90
50067;DHT22;35952;52.524;13.340;2023-02-26T00:04:42;0.70;99.90
50067;DHT22;35952;52.524;13.340;2023-02-26T00:07:08;0.70;99.90
50067;DHT22;35952;52.524;13.340;2023-02-26T00:09:34;0.70;99.90
50067;DHT22;35952;52.524;13.340;2023-02-26T00:12:00;0.80;99.90
50067;DHT22;35952;52.524;13.340;2023-02-26T00:14:26;0.70;99.90
50067;DHT22;35952;52.524;13.340;2023-02-26T00:17:34;0.70;99.90
50067;DHT22;35952;52.524;13.340;2023-02-26T00:20:01;0.70;99.90
50067;DHT22;35952;52.524;13.340;2023-02-26T00:22:28;0.70;99.90
50067;DHT22;35952;52.524;13.340;2023-02-26T00:24:53;0.60;99.90
50067;DHT22;35952;52.524;13.340;2023-02-26T00:27:19;0.50;99.90
50067;DHT22;35952;52.524;13.340;2023-02-26T00:29:45;0.40;99.90
50067;DHT22;35952;52.524;13.340;2023-02-26T00:32:11;0.50;99.90
50067;DHT22;35952;52.524;13.340;2023-02-26T00:34:37;0.50;99.90
50067;DHT22;35952;52.524;13.340;2023-02-26T00:42:12;0.50;99.90
50067;DHT22;35952;52.524;13.340;2023-02-26T00:44:39;0.60;99.90
50067;DHT22;35952;52.524;13.340;2023-02-26T00:47:09;0.60;99.90
50067;DHT22;35952;52.524;13.340;2023-02-26T00:52:46;0.80;99.90
50067;DHT22;35952;52.524;13.340;2023-02-26T00:55:15;0.80;99.90
50067;DHT22;35952;52.524;13.340;2023-02-26T00:57:40;0.80;99.90
50067;DHT22;35952;52.524;13.340;2023-02-26T01:00:07;0.90;99.90
50067;DHT22;35952;52.524;13.340;2023-02-26T01:02:36;0.80;99.90
50067;DHT22;35952;52.524;13.340;2023-02-26T01:05:03;0.90;99.90
50067;DHT22;35952;52.524;13.340;2023-02-26T01:07:30;0.90;99.90
50067;DHT22;35952;52.524;13.340;2023-02-26T01:09:58;0.90;99.90
50067;DHT22;35952;52.524;13.340;2023-02-26T01:12:23;0.90;99.90
50067;DHT22;35952;52.524;13.340;2023-02-26T01:14:49;0.90;99.90
50067;DHT22;35952;52.524;13.340;2023-02-26T01:17:24;1.00;99.90
50067;DHT22;35952;52.524;13.340;2023-02-26T01:20:01;1.00;99.90
50067;DHT22;35952;52.524;13.340;2023-02-26T01:25:34;1.00;99.90
50067;DHT22;35952;52.524;13.340;2023-02-26T01:28:01;1.00;99.90
50067;DHT22;35952;52.524;13.340;2023-02-26T01:30:26;1.00;99.90
50067;DHT22;35952;52.524;13.340;2023-02-26T01:35:52;1.00;99.90
50067;DHT22;35952;52.524;13.340;2023-02-26T01:46:16;1.10;99.90
50067;DHT22;35952;52.524;13.340;2023-02-26T01:48:51;1.10;99.90
50067;DHT22;35952;52.524;13.340;2023-02-26T01:51:36;1.10;99.90
50067;DHT22;35952;52.524;13.340;2023-02-26T01:54:04;1.10;99.90
50067;DHT22;35952;52.524;13.340;2023-02-26T01:56:29;1.10;99.90
50067;DHT22;35952;52.524;13.340;2023-02-26T01:58:55;0.90;99.90
50067;DHT22;35952;52.524;13.340;2023-02-26T02:01:20;0.90;99.90
50067;DHT22;35952;52.524;13.340;2023-02-26T02:03:45;1.00;99.90
50067;DHT22;35952;52.524;13.340;2023-02-26T02:06:17;1.10;99.90
50067;DHT22;35952;52.524;13.340;2023-02-26T02:08:44;1.10;99.90
50067;DHT22;35952;52.524;13.340;2023-02-26T02:11:11;1.20;99.90
50067;DHT22;35952;52.524;13.340;2023-02-26T02:14:17;1.20;99.90
50067;DHT22;35952;52.524;13.340;2023-02-26T02:19:53;1.20;99.90
50067;DHT22;35952;52.524;13.340;2023-02-26T02:22:39;1.20;99.90
50067;DHT22;35952;52.524;13.340;2023-02-26T02:28:48;1.20;99.90
50067;DHT22;35952;52.524;13.340;2023-02-26T02:31:27;1.20;99.90
50067;DHT22;35952;52.524;13.340;2023-02-26T02:34:15;1.20;99.90
50067;DHT22;35952;52.524;13.340;2023-02-26T02:36:57;1.20;99.90
50067;DHT22;35952;52.524;13.340;2023-02-26T02:39:47;1.20;99.90
50067;DHT22;35952;52.524;13.340;2023-02-26T02:47:47;1.20;99.90
50067;DHT22;35952;52.524;13.340;2023-02-26T02:50:19;1.10;99.90
50067;DHT22;35952;52.524;13.340;2023-02-26T02:52:56;1.10;99.90
50067;DHT22;35952;52.524;13.340;2023-02-26T02:55:35;1.10;99.90
50067;DHT22;35952;52.524;13.340;2023-02-26T02:58:15;1.20;99.90
50067;DHT22;35952;52.524;13.340;2023-02-26T03:00:48;1.20;99.90
50067;DHT22;35952;52.524;13.340;2023-02-26T03:03:42;1.10;99.90
50067;DHT22;35952;52.524;13.340;2023-02-26T03:06:09;1.20;99.90
50067;DHT22;35952;52.524;13.340;2023-02-26T03:08:38;1.10;99.90
50067;DHT22;35952;52.524;13.340;2023-02-26T03:11:06;1.20;99.90
50067;DHT22;35952;52.524;13.340;2023-02-26T03:13:32;1.10;99.90
50067;DHT22;35952;52.524;13.340;2023-02-26T03:18:57;0.90;99.90
50067;DHT22;35952;52.524;13.340;2023-02-26T03:21:38;0.90;99.90
50067;DHT22;35952;52.524;13.340;2023-02-26T03:24:13;1.00;99.90
50067;DHT22;35952;52.524;13.340;2023-02-26T03:29:21;1.00;99.90
50067;DHT22;35952;52.524;13.340;2023-02-26T03:31:59;1.10;99.90
50067;DHT22;35952;52.524;13.340;2023-02-26T03:34:48;1.10;99.90
50067;DHT22;35952;52.524;13.340;2023-02-26T03:37:24;1.10;99.90
50067;DHT22;35952;52.524;13.340;2023-02-26T03:39:57;1.10;99.90
50067;DHT22;35952;52.524;13.340;2023-02-26T03:42:43;1.00;99.90
50067;DHT22;35952;52.524;13.340;2023-02-26T03:45:13;1.00;99.90
50067;DHT22;35952;52.524;13.340;2023-02-26T03:47:43;1.00;99.90
50067;DHT22;35952;52.524;13.340;2023-02-26T03:52:40;1.10;99.90
50067;DHT22;35952;52.524;13.340;2023-02-26T03:55:12;1.10;99.90
50067;DHT22;35952;52.524;13.340;2023-02-26T03:57:39;1.10;99.90
50067;DHT22;35952;52.524;13.340;2023-02-26T04:00:06;1.10;99.90
50067;DHT22;35952;52.524;13.340;2023-02-26T04:02:42;1.10;99.90
50067;DHT22;35952;52.524;13.340;2023-02-26T04:05:18;1.10;99.90
50067;DHT22;35952;52.524;13.340;2023-02-26T04:07:46;1.20;99.90
50067;DHT22;35952;52.524;13.340;2023-02-26T04:10:16;1.20;99.90
50067;DHT22;35952;52.524;13.340;2023-02-26T04:12:42;1.20;99.90
50067;DHT22;35952;52.524;13.340;2023-02-26T04:15:08;1.20;99.90
50067;DHT22;35952;52.524;13.340;2023-02-26T04:17:34;1.20;99.90
50067;DHT22;35952;52.524;13.340;2023-02-26T04:20:00;1.20;99.90
50067;DHT22;35952;52.524;13.340;2023-02-26T04:22:25;1.10;99.90
50067;DHT22;35952;52.524;13.340;2023-02-26T04:24:51;1.10;99.90
50067;DHT22;35952;52.524;13.340;2023-02-26T04:27:16;1.10;99.90
50067;DHT22;35952;52.524;13.340;2023-02-26T04:29:42;1.20;99.90
50067;DHT22;35952;52.524;13.340;2023-02-26T04:32:07;1.10;99.90
50067;DHT22;35952;52.524;13.340;2023-02-26T04:34:33;1.20;99.90
50067;DHT22;35952;52.524;13.340;2023-02-26T04:36:58;1.20;99.90
50067;DHT22;35952;52.524;13.340;2023-02-26T04:39:24;1.20;99.90
50067;DHT22;35952;52.524;13.340;2023-02-26T04:41:49;1.20;99.90
50067;DHT22;35952;52.524;13.340;2023-02-26T04:44:15;1.20;99.90
50067;DHT22;35952;52.524;13.340;2023-02-26T04:46:40;1.20;99.90
50067;DHT22;35952;52.524;13.340;2023-02-26T04:49:06;1.20;99.90
50067;DHT22;35952;52.524;13.340;2023-02-26T04:51:31;1.20;99.90
50067;DHT22;35952;52.524;13.340;2023-02-26T04:53:57;1.10;99.90
50067;DHT22;35952;52.524;13.340;2023-02-26T04:56:22;1.10;99.90
50067;DHT22;35952;52.524;13.340;2023-02-26T04:58:48;1.10;99.90
50067;DHT22;35952;52.524;13.340;2023-02-26T05:01:13;1.20;99.90
50067;DHT22;35952;52.524;13.340;2023-02-26T05:03:39;1.30;99.90
50067;DHT22;35952;52.524;13.340;2023-02-26T05:06:05;1.30;99.90
50067;DHT22;35952;52.524;13.340;2023-02-26T05:08:31;1.20;99.90
50067;DHT22;35952;52.524;13.340;2023-02-26T05:10:56;1.20;99.90
50067;DHT22;35952;52.524;13.340;2023-02-26T05:13:22;1.30;99.90
50067;DHT22;35952;52.524;13.340;2023-02-26T05:15:47;1.20;99.90
50067;DHT22;35952;52.524;13.340;2023-02-26T05:18:13;1.30;99.90
50067;DHT22;35952;52.524;13.340;2023-02-26T05:20:38;1.30;99.90
50067;DHT22;35952;52.524;13.340;2023-02-26T05:23:04;1.30;99.90
50067;DHT22;35952;52.524;13.340;2023-02-26T05:25:30;1.30;99.90
50067;DHT22;35952;52.524;13.340;2023-02-26T05:27:55;1.20;99.90
50067;DHT22;35952;52.524;13.340;2023-02-26T05:30:21;1.20;99.90
50067;DHT22;35952;52.524;13.340;2023-02-26T05:32:47;1.30;99.90
50067;DHT22;35952;52.524;13.340;2023-02-26T05:35:13;1.30;99.90
50067;DHT22;35952;52.524;13.340;2023-02-26T05:37:38;1.20;99.90
50067;DHT22;35952;52.524;13.340;2023-02-26T05:40:06;1.30;99.90
50067;DHT22;35952;52.524;13.340;2023-02-26T05:42:35;1.30;99.90
50067;DHT22;35952;52.524;13.340;2023-02-26T05:45:00;1.30;99.90
50067;DHT22;35952;52.524;13.340;2023-02-26T05:47:26;1.30;99.90
50067;DHT22;35952;52.524;13.340;2023-02-26T05:49:51;1.40;99.90
50067;DHT22;35952;52.524;13.340;2023-02-26T05:52:17;1.30;99.90
50067;DHT22;35952;52.524;13.340;2023-02-26T05:54:43;1.30;99.90
50067;DHT22;35952;52.524;13.340;2023-02-26T05:57:08;1.20;99.90
50067;DHT22;35952;52.524;13.340;2023-02-26T05:59:34;1.20;99.90
50067;DHT22;35952;52.524;13.340;2023-02-26T06:01:59;1.30;99.90
50067;DHT22;35952;52.524;13.340;2023-02-26T06:04:25;1.20;99.90
50067;DHT22;35952;52.524;13.340;2023-02-26T06:06:50;1.30;99.90
50067;DHT22;35952;52.524;13.340;2023-02-26T06:09:16;1.40;99.90
50067;DHT22;35952;52.524;13.340;2023-02-26T06:11:41;1.50;99.90
50067;DHT22;35952;52.524;13.340;2023-02-26T06:14:07;1.40;99.90
50067;DHT22;35952;52.524;13.340;2023-02-26T06:16:33;1.40;99.90
50067;DHT22;35952;52.524;13.340;2023-02-26T06:19:00;1.40;99.90
50067;DHT22;35952;52.524;13.340;2023-02-26T06:21:26;1.40;99.90
50067;DHT22;35952;52.524;13.340;2023-02-26T06:23:51;1.50;99.90
50067;DHT22;35952;52.524;13.340;2023-02-26T06:26:17;1.50;99.90
50067;DHT22;35952;52.524;13.340;2023-02-26T06:28:42;1.50;99.90
50067;DHT22;35952;52.524;13.340;2023-02-26T06:31:08;1.50;99.90
50067;DHT22;35952;52.524;13.340;2023-02-26T06:33:33;1.50;99.90
50067;DHT22;35952;52.524;13.340;2023-02-26T06:35:59;1.60;99.90
50067;DHT22;35952;52.524;13.340;2023-02-26T06:38:25;1.60;99.90
50067;DHT22;35952;52.524;13.340;2023-02-26T06:40:51;1.70;99.90
50067;DHT22;35952;52.524;13.340;2023-02-26T06:43:16;1.70;99.90
50067;DHT22;35952;52.524;13.340;2023-02-26T06:45:42;1.70;99.90
50067;DHT22;35952;52.524;13.340;2023-02-26T06:48:07;1.70;99.90
50067;DHT22;35952;52.524;13.340;2023-02-26T06:50:33;1.80;99.90
50067;DHT22;35952;52.524;13.340;2023-02-26T06:52:58;1.80;99.90
50067;DHT22;35952;52.524;13.340;2023-02-26T06:55:24;1.80;99.90
50067;DHT22;35952;52.524;13.340;2023-02-26T06:57:52;1.90;99.90
50067;DHT22;35952;52.524;13.340;2023-02-26T07:00:18;1.90;99.90
50067;DHT22;35952;52.524;13.340;2023-02-26T07:02:43;1.90;99.90
50067;DHT22;35952;52.524;13.340;2023-02-26T07:05:09;1.80;99.90
50067;DHT22;35952;52.524;13.340;2023-02-26T07:07:34;2.00;99.90
50067;DHT22;35952;52.524;13.340;2023-02-26T07:10:00;2.10;99.90
50067;DHT22;35952;52.524;13.340;2023-02-26T07:12:25;2.20;99.90
50067;DHT22;35952;52.524;13.340;2023-02-26T07:14:51;2.30;99.90
50067;DHT22;35952;52.524;13.340;2023-02-26T07:17:16;2.30;99.90
50067;DHT22;35952;52.524;13.340;2023-02-26T07:19:48;2.20;99.90
50067;DHT22;35952;52.524;13.340;2023-02-26T07:22:15;2.20;99.90
50067;DHT22;35952;52.524;13.340;2023-02-26T07:24:42;2.10;99.90
50067;DHT22;35952;52.524;13.340;2023-02-26T07:27:08;2.00;99.90
50067;DHT22;35952;52.524;13.340;2023-02-26T07:29:33;2.10;99.90
50067;DHT22;35952;52.524;13.340;2023-02-26T07:31:59;2.10;99.90
50067;DHT22;35952;52.524;13.340;2023-02-26T07:34:24;2.10;99.90
50067;DHT22;35952;52.524;13.340;2023-02-26T07:36:50;2.00;99.90
50067;DHT22;35952;52.524;13.340;2023-02-26T07:39:15;2.00;99.90
50067;DHT22;35952;52.524;13.340;2023-02-26T07:41:41;2.00;99.90
50067;DHT22;35952;52.524;13.340;2023-02-26T07:44:06;2.10;99.90
50067;DHT22;35952;52.524;13.340;2023-02-26T07:46:32;2.10;99.90
50067;DHT22;35952;52.524;13.340;2023-02-26T07:48:58;2.00;99.90
50067;DHT22;35952;52.524;13.340;2023-02-26T07:51:24;2.10;99.90
50067;DHT22;35952;52.524;13.340;2023-02-26T07:53:49;2.10;99.90
50067;DHT22;35952;52.524;13.340;2023-02-26T07:56:15;2.10;99.90
50067;DHT22;35952;52.524;13.340;2023-02-26T07:58:40;2.10;99.90
50067;DHT22;35952;52.524;13.340;2023-02-26T08:01:06;2.20;99.90
50067;DHT22;35952;52.524;13.340;2023-02-26T08:03:32;2.20;99.90
50067;DHT22;35952;52.524;13.340;2023-02-26T08:05:57;2.40;99.90
50067;DHT22;35952;52.524;13.340;2023-02-26T08:08:25;2.60;99.90
50067;DHT22;35952;52.524;13.340;2023-02-26T08:10:51;2.60;99.90
50067;DHT22;35952;52.524;13.340;2023-02-26T08:13:20;2.60;99.90
50067;DHT22;35952;52.524;13.340;2023-02-26T08:15:47;2.60;99.90
50067;DHT22;35952;52.524;13.340;2023-02-26T08:18:12;2.60;99.90
50067;DHT22;35952;52.524;13.340;2023-02-26T08:20:38;4.00;99.90
50067;DHT22;35952;52.524;13.340;2023-02-26T08:23:03;6.30;99.90
50067;DHT22;35952;52.524;13.340;2023-02-26T08:25:32;8.10;99.90
50067;DHT22;35952;52.524;13.340;2023-02-26T08:27:58;8.50;98.20
50067;DHT22;35952;52.524;13.340;2023-02-26T08:30:26;7.40;99.90
50067;DHT22;35952;52.524;13.340;2023-02-26T08:32:52;6.30;99.90
50067;DHT22;35952;52.524;13.340;2023-02-26T08:35:18;5.30;99.90
50067;DHT22;35952;52.524;13.340;2023-02-26T08:37:44;4.40;99.90
50067;DHT22;35952;52.524;13.340;2023-02-26T08:40:10;3.90;99.90
50067;DHT22;35952;52.524;13.340;2023-02-26T08:42:39;3.50;99.90
50067;DHT22;35952;52.524;13.340;2023-02-26T08:45:06;3.30;99.90
50067;DHT22;35952;52.524;13.340;2023-02-26T08:47:32;3.10;99.90
50067;DHT22;35952;52.524;13.340;2023-02-26T08:49:58;3.00;99.90
50067;DHT22;35952;52.524;13.340;2023-02-26T08:52:24;2.90;99.90
50067;DHT22;35952;52.524;13.340;2023-02-26T08:54:49;2.80;99.90
50067;DHT22;35952;52.524;13.340;2023-02-26T08:57:15;2.80;99.90
50067;DHT22;35952;52.524;13.340;2023-02-26T08:59:41;2.80;99.90
50067;DHT22;35952;52.524;13.340;2023-02-26T09:02:08;2.80;99.90
50067;DHT22;35952;52.524;13.340;2023-02-26T09:04:34;2.70;99.90
50067;DHT22;35952;52.524;13.340;2023-02-26T09:07:00;2.70;99.90
50067;DHT22;35952;52.524;13.340;2023-02-26T09:09:25;2.80;99.90
50067;DHT22;35952;52.524;13.340;2023-02-26T09:11:51;2.90;99.90
50067;DHT22;35952;52.524;13.340;2023-02-26T09:14:16;2.90;99.90
50067;DHT22;35952;52.524;13.340;2023-02-26T09:16:42;2.90;99.90
50067;DHT22;35952;52.524;13.340;2023-02-26T09:19:08;2.90;99.90
50067;DHT22;35952;52.524;13.340;2023-02-26T09:21:33;2.90;99.90
50067;DHT22;35952;52.524;13.340;2023-02-26T09:24:00;3.00;99.90
50067;DHT22;35952;52.524;13.340;2023-02-26T09:26:28;3.00;99.90
50067;DHT22;35952;52.524;13.340;2023-02-26T09:28:54;3.00;99.90
50067;DHT22;35952;52.524;13.340;2023-02-26T09:31:23;3.00;99.90
50067;DHT22;35952;52.524;13.340;2023-02-26T09:33:48;3.10;99.90
50067;DHT22;35952;52.524;13.340;2023-02-26T09:36:14;3.00;99.90
50067;DHT22;35952;52.524;13.340;2023-02-26T09:38:39;3.00;99.90
50067;DHT22;35952;52.524;13.340;2023-02-26T09:41:09;3.00;99.90
50067;DHT22;35952;52.524;13.340;2023-02-26T09:44:16;3.10;99.90
50067;DHT22;35952;52.524;13.340;2023-02-26T09:47:08;3.20;99.90
50067;DHT22;35952;52.524;13.340;2023-02-26T09:55:14;3.10;99.90
50067;DHT22;35952;52.524;13.340;2023-02-26T09:57:44;3.30;99.90
50067;DHT22;35952;52.524;13.340;2023-02-26T10:00:27;3.40;99.90
50067;DHT22;35952;52.524;13.340;2023-02-26T10:06:17;3.60;99.90
50067;DHT22;35952;52.524;13.340;2023-02-26T10:11:54;4.10;99.90
50067;DHT22;35952;52.524;13.340;2023-02-26T10:14:42;4.00;99.90
50067;DHT22;35952;52.524;13.340;2023-02-26T10:20:14;3.70;99.90
50067;DHT22;35952;52.524;13.340;2023-02-26T10:22:48;3.60;99.90
50067;DHT22;35952;52.524;13.340;2023-02-26T10:25:20;3.60;99.90
50067;DHT22;35952;52.524;13.340;2023-02-26T10:27:55;3.70;99.90
50067;DHT22;35952;52.524;13.340;2023-02-26T10:30:35;3.70;99.90
50067;DHT22;35952;52.524;13.340;2023-02-26T10:35:46;3.70;99.90
50067;DHT22;35952;52.524;13.340;2023-02-26T10:38:20;3.70;99.90
50067;DHT22;35952;52.524;13.340;2023-02-26T10:41:04;3.80;99.90
50067;DHT22;35952;52.524;13.340;2023-02-26T10:43:47;3.90;99.90
50067;DHT22;35952;52.524;13.340;2023-02-26T10:46:44;4.00;99.90
50067;DHT22;35952;52.524;13.340;2023-02-26T10:51:43;4.10;99.90
50067;DHT22;35952;52.524;13.340;2023-02-26T10:54:23;4.20;99.90
50067;DHT22;35952;52.524;13.340;2023-02-26T10:56:51;4.30;99.90
50067;DHT22;35952;52.524;13.340;2023-02-26T10:59:17;4.40;99.90
50067;DHT22;35952;52.524;13.340;2023-02-26T11:01:43;4.40;99.90
50067;DHT22;35952;52.524;13.340;2023-02-26T11:04:15;4.30;99.90
50067;DHT22;35952;52.524;13.340;2023-02-26T11:06:54;4.30;99.90
50067;DHT22;35952;52.524;13.340;2023-02-26T11:09:36;4.30;99.90
50067;DHT22;35952;52.524;13.340;2023-02-26T11:12:12;4.30;99.90
50067;DHT22;35952;52.524;13.340;2023-02-26T11:14:39;4.50;99.90
50067;DHT22;35952;52.524;13.340;2023-02-26T11:17:32;4.60;98.60
50067;DHT22;35952;52.524;13.340;2023-02-26T11:20:14;4.80;97.30
50067;DHT22;35952;52.524;13.340;2023-02-26T11:22:48;4.80;99.40
50067;DHT22;35952;52.524;13.340;2023-02-26T11:25:17;5.00;98.90
50067;DHT22;35952;52.524;13.340;2023-02-26T11:27:43;5.30;98.20
50067;DHT22;35952;52.524;13.340;2023-02-26T11:30:19;5.30;98.20
50067;DHT22;35952;52.524;13.340;2023-02-26T11:32:49;5.10;97.80
50067;DHT22;35952;52.524;13.340;2023-02-26T11:35:16;5.00;98.80
50067;DHT22;35952;52.524;13.340;2023-02-26T11:37:47;4.80;99.90
50067;DHT22;35952;52.524;13.340;2023-02-26T11:40:39;4.70;99.30
50067;DHT22;35952;52.524;13.340;2023-02-26T11:43:09;4.70;96.90
50067;DHT22;35952;52.524;13.340;2023-02-26T11:45:42;4.90;96.40
50067;DHT22;35952;52.524;13.340;2023-02-26T11:48:13;4.90;95.60
50067;DHT22;35952;52.524;13.340;2023-02-26T11:50:46;4.90;95.00
50067;DHT22;35952;52.524;13.340;2023-02-26T11:54:02;4.90;95.10
50067;DHT22;35952;52.524;13.340;2023-02-26T11:56:09;5.00;95.00
50067;DHT22;35952;52.524;13.340;2023-02-26T11:58:37;5.30;93.90
50067;DHT22;35952;52.524;13.340;2023-02-26T12:01:06;5.40;94.80
50067;DHT22;35952;52.524;13.340;2023-02-26T12:03:35;5.00;96.80
50067;DHT22;35952;52.524;13.340;2023-02-26T12:06:04;4.90;96.80
50067;DHT22;35952;52.524;13.340;2023-02-26T12:08:36;4.70;97.60
50067;DHT22;35952;52.524;13.340;2023-02-26T12:11:30;4.50;99.90
50067;DHT22;35952;52.524;13.340;2023-02-26T12:14:19;4.50;99.90
50067;DHT22;35952;52.524;13.340;2023-02-26T12:17:03;4.40;96.80
50067;DHT22;35952;52.524;13.340;2023-02-26T12:20:19;4.40;95.30
50067;DHT22;35952;52.524;13.340;2023-02-26T12:25:35;4.40;95.80
50067;DHT22;35952;52.524;13.340;2023-02-26T12:53:43;4.70;94.90
50067;DHT22;35952;52.524;13.340;2023-02-26T13:05:06;5.10;92.30
50067;DHT22;35952;52.524;13.340;2023-02-26T13:07:42;5.50;90.10
50067;DHT22;35952;52.524;13.340;2023-02-26T13:10:51;5.50;89.30
50067;DHT22;35952;52.524;13.340;2023-02-26T13:13:27;5.30;89.00
50067;DHT22;35952;52.524;13.340;2023-02-26T13:16:00;5.20;90.50
50067;DHT22;35952;52.524;13.340;2023-02-26T13:21:13;4.90;91.10
50067;DHT22;35952;52.524;13.340;2023-02-26T13:23:55;4.70;91.80
50067;DHT22;35952;52.524;13.340;2023-02-26T13:26:30;4.70;90.90
50067;DHT22;35952;52.524;13.340;2023-02-26T13:31:38;4.80;86.30
50067;DHT22;35952;52.524;13.340;2023-02-26T13:34:21;4.70;83.80
50067;DHT22;35952;52.524;13.340;2023-02-26T13:36:52;4.70;84.30
50067;DHT22;35952;52.524;13.340;2023-02-26T13:42:18;4.90;83.50
50067;DHT22;35952;52.524;13.340;2023-02-26T13:44:53;5.00;80.90
50067;DHT22;35952;52.524;13.340;2023-02-26T13:47:38;5.40;78.40
50067;DHT22;35952;52.524;13.340;2023-02-26T13:50:26;5.70;74.80
50067;DHT22;35952;52.524;13.340;2023-02-26T14:01:12;5.20;70.60
50067;DHT22;35952;52.524;13.340;2023-02-26T14:04:04;5.10;72.40
50067;DHT22;35952;52.524;13.340;2023-02-26T14:06:47;5.00;71.70
50067;DHT22;35952;52.524;13.340;2023-02-26T14:12:02;5.10;70.70
50067;DHT22;35952;52.524;13.340;2023-02-26T14:20:14;5.30;69.80
50067;DHT22;35952;52.524;13.340;2023-02-26T14:22:41;5.30;69.00
50067;DHT22;35952;52.524;13.340;2023-02-26T14:25:24;5.30;71.10
50067;DHT22;35952;52.524;13.340;2023-02-26T14:31:15;5.90;69.00
50067;DHT22;35952;52.524;13.340;2023-02-26T14:33:59;6.20;66.60
50067;DHT22;35952;52.524;13.340;2023-02-26T14:36:48;6.10;66.20
50067;DHT22;35952;52.524;13.340;2023-02-26T14:42:14;5.50;67.60
50067;DHT22;35952;52.524;13.340;2023-02-26T14:44:45;5.30;67.80
50067;DHT22;35952;52.524;13.340;2023-02-26T14:47:11;5.20;69.30
50067;DHT22;35952;52.524;13.340;2023-02-26T14:49:43;5.10;72.00
50067;DHT22;35952;52.524;13.340;2023-02-26T14:55:29;4.90;74.20
50067;DHT22;35952;52.524;13.340;2023-02-26T14:58:07;4.80;74.60
50067;DHT22;35952;52.524;13.340;2023-02-26T15:06:19;4.40;78.00
50067;DHT22;35952;52.524;13.340;2023-02-26T15:09:08;4.30;78.60
50067;DHT22;35952;52.524;13.340;2023-02-26T15:14:35;4.00;76.50
50067;DHT22;35952;52.524;13.340;2023-02-26T15:19:55;3.90;75.60
50067;DHT22;35952;52.524;13.340;2023-02-26T15:24:54;4.10;75.10
50067;DHT22;35952;52.524;13.340;2023-02-26T15:27:20;4.30;73.90
50067;DHT22;35952;52.524;13.340;2023-02-26T15:29:48;4.70;71.70
50067;DHT22;35952;52.524;13.340;2023-02-26T15:32:29;5.00;70.60
50067;DHT22;35952;52.524;13.340;2023-02-26T15:35:31;5.20;67.80
50067;DHT22;35952;52.524;13.340;2023-02-26T15:37:53;5.40;69.30
50067;DHT22;35952;52.524;13.340;2023-02-26T15:40:19;5.50;68.40
50067;DHT22;35952;52.524;13.340;2023-02-26T15:42:49;5.60;66.60
50067;DHT22;35952;52.524;13.340;2023-02-26T15:45:38;5.40;67.80
50067;DHT22;35952;52.524;13.340;2023-02-26T15:48:07;5.20;66.00
50067;DHT22;35952;52.524;13.340;2023-02-26T15:50:36;5.10;68.00
50067;DHT22;35952;52.524;13.340;2023-02-26T15:53:04;4.80;69.00
50067;DHT22;35952;52.524;13.340;2023-02-26T15:55:34;4.60;71.20
50067;DHT22;35952;52.524;13.340;2023-02-26T15:58:01;4.50;73.20
50067;DHT22;35952;52.524;13.340;2023-02-26T16:00:31;4.50;74.40
50067;DHT22;35952;52.524;13.340;2023-02-26T16:02:57;4.30;75.10
50067;DHT22;35952;52.524;13.340;2023-02-26T16:05:24;4.20;76.40
50067;DHT22;35952;52.524;13.340;2023-02-26T16:07:50;4.10;77.50
50067;DHT22;35952;52.524;13.340;2023-02-26T16:12:51;3.90;82.10
50067;DHT22;35952;52.524;13.340;2023-02-26T16:15:28;3.70;84.60
50067;DHT22;35952;52.524;13.340;2023-02-26T16:17:55;3.60;87.80
50067;DHT22;35952;52.524;13.340;2023-02-26T16:20:24;3.40;91.00
50067;DHT22;35952;52.524;13.340;2023-02-26T16:22:55;3.40;90.70
50067;DHT22;35952;52.524;13.340;2023-02-26T16:25:29;3.30;91.60
50067;DHT22;35952;52.524;13.340;2023-02-26T16:28:23;3.30;92.70
50067;DHT22;35952;52.524;13.340;2023-02-26T16:30:55;3.30;92.50
50067;DHT22;35952;52.524;13.340;2023-02-26T16:33:23;3.30;92.60
50067;DHT22;35952;52.524;13.340;2023-02-26T16:38:27;3.20;93.70
50067;DHT22;35952;52.524;13.340;2023-02-26T16:41:04;3.20;93.70
50067;DHT22;35952;52.524;13.340;2023-02-26T16:46:00;3.10;95.40
50067;DHT22;35952;52.524;13.340;2023-02-26T16:48:30;3.10;96.30
50067;DHT22;35952;52.524;13.340;2023-02-26T16:51:08;3.10;96.20
50067;DHT22;35952;52.524;13.340;2023-02-26T16:53:46;3.10;96.90
50067;DHT22;35952;52.524;13.340;2023-02-26T16:56:16;3.00;97.60
50067;DHT22;35952;52.524;13.340;2023-02-26T16:58:48;3.00;98.70
50067;DHT22;35952;52.524;13.340;2023-02-26T17:01:17;3.00;98.80
50067;DHT22;35952;52.524;13.340;2023-02-26T17:03:57;3.00;99.00
50067;DHT22;35952;52.524;13.340;2023-02-26T17:06:26;2.90;99.90
50067;DHT22;35952;52.524;13.340;2023-02-26T17:08:59;2.80;99.90
50067;DHT22;35952;52.524;13.340;2023-02-26T17:11:30;2.70;99.90
50067;DHT22;35952;52.524;13.340;2023-02-26T17:16:37;2.70;99.90
50067;DHT22;35952;52.524;13.340;2023-02-26T17:19:03;2.70;99.90
50067;DHT22;35952;52.524;13.340;2023-02-26T17:21:29;2.70;99.90
50067;DHT22;35952;52.524;13.340;2023-02-26T17:23:55;2.70;99.90
50067;DHT22;35952;52.524;13.340;2023-02-26T17:26:20;2.80;99.90
50067;DHT22;35952;52.524;13.340;2023-02-26T17:28:47;2.80;99.90
50067;DHT22;35952;52.524;13.340;2023-02-26T17:31:13;2.70;99.90
50067;DHT22;35952;52.524;13.340;2023-02-26T17:33:41;2.70;99.90
50067;DHT22;35952;52.524;13.340;2023-02-26T17:36:13;2.80;99.90
50067;DHT22;35952;52.524;13.340;2023-02-26T17:38:41;2.80;99.90
50067;DHT22;35952;52.524;13.340;2023-02-26T17:41:17;2.80;99.90
50067;DHT22;35952;52.524;13.340;2023-02-26T17:43:43;2.80;99.90
50067;DHT22;35952;52.524;13.340;2023-02-26T17:46:10;2.80;99.90
50067;DHT22;35952;52.524;13.340;2023-02-26T17:48:36;2.80;99.90
50067;DHT22;35952;52.524;13.340;2023-02-26T17:51:02;2.80;99.90
50067;DHT22;35952;52.524;13.340;2023-02-26T17:53:28;2.70;99.90
50067;DHT22;35952;52.524;13.340;2023-02-26T17:56:21;2.60;99.90
50067;DHT22;35952;52.524;13.340;2023-02-26T17:58:48;2.60;99.90
50067;DHT22;35952;52.524;13.340;2023-02-26T18:01:14;2.50;99.90
50067;DHT22;35952;52.524;13.340;2023-02-26T18:03:40;2.50;99.90
50067;DHT22;35952;52.524;13.340;2023-02-26T18:06:10;2.40;99.90
50067;DHT22;35952;52.524;13.340;2023-02-26T18:08:37;2.40;99.90
50067;DHT22;35952;52.524;13.340;2023-02-26T18:11:05;2.30;99.90
50067;DHT22;35952;52.524;13.340;2023-02-26T18:13:32;2.30;99.90
50067;DHT22;35952;52.524;13.340;2023-02-26T18:15:58;2.30;99.90
50067;DHT22;35952;52.524;13.340;2023-02-26T18:18:26;2.10;99.90
50067;DHT22;35952;52.524;13.340;2023-02-26T18:20:52;2.10;99.90
50067;DHT22;35952;52.524;13.340;2023-02-26T18:23:18;2.10;99.90
50067;DHT22;35952;52.524;13.340;2023-02-26T18:25:45;2.20;99.90
50067;DHT22;35952;52.524;13.340;2023-02-26T18:28:20;2.10;99.90
50067;DHT22;35952;52.524;13.340;2023-02-26T18:30:46;2.10;99.90